sensor_id;sensor_type;location;lat;lon;timestamp;P1;durP1;ratioP1;P2;durP2;ratioP2
27802;SDS011;15182;48.174;11.562;2022-08-19T00:01:38;2.67;;;2.58;;
27802;SDS011;15182;48.174;11.562;2022-08-19T00:04:12;2.38;;;2.38;;
27802;SDS011;15182;48.174;11.562;2022-08-19T00:06:46;2.30;;;2.30;;
27802;SDS011;15182;48.174;11.562;2022-08-19T00:09:18;3.05;;;2.78;;
27802;SDS011;15182;48.174;11.562;2022-08-19T00:11:56;2.38;;;2.38;;
27802;SDS011;15182;48.174;11.562;2022-08-19T00:14:28;2.70;;;2.70;;
27802;SDS011;15182;48.174;11.562;2022-08-19T00:17:00;2.70;;;2.70;;
27802;SDS011;15182;48.174;11.562;2022-08-19T00:19:33;2.97;;;2.90;;
27802;SDS011;15182;48.174;11.562;2022-08-19T00:22:06;3.13;;;3.03;;
27802;SDS011;15182;48.174;11.562;2022-08-19T00:24:37;2.95;;;2.95;;
27802;SDS011;15182;48.174;11.562;2022-08-19T00:27:10;3.25;;;3.15;;
27802;SDS011;15182;48.174;11.562;2022-08-19T00:29:40;3.22;;;3.13;;
27802;SDS011;15182;48.174;11.562;2022-08-19T00:32:11;3.42;;;3.33;;
27802;SDS011;15182;48.174;11.562;2022-08-19T00:34:43;3.35;;;3.25;;
27802;SDS011;15182;48.174;11.562;2022-08-19T00:37:15;3.33;;;3.25;;
27802;SDS011;15182;48.174;11.562;2022-08-19T00:39:48;4.25;;;4.15;;
27802;SDS011;15182;48.174;11.562;2022-08-19T00:42:21;3.80;;;3.50;;
27802;SDS011;15182;48.174;11.562;2022-08-19T00:44:54;3.65;;;3.55;;
27802;SDS011;15182;48.174;11.562;2022-08-19T00:47:26;3.88;;;3.78;;
27802;SDS011;15182;48.174;11.562;2022-08-19T00:49:57;6.78;;;3.65;;
27802;SDS011;15182;48.174;11.562;2022-08-19T00:52:30;3.72;;;3.53;;
27802;SDS011;15182;48.174;11.562;2022-08-19T00:55:12;4.38;;;4.15;;
27802;SDS011;15182;48.174;11.562;2022-08-19T00:57:51;3.72;;;3.63;;
27802;SDS011;15182;48.174;11.562;2022-08-19T01:00:27;4.85;;;4.55;;
27802;SDS011;15182;48.174;11.562;2022-08-19T01:03:03;4.20;;;4.07;;
27802;SDS011;15182;48.174;11.562;2022-08-19T01:05:39;4.07;;;3.97;;
27802;SDS011;15182;48.174;11.562;2022-08-19T01:08:13;4.53;;;4.22;;
27802;SDS011;15182;48.174;11.562;2022-08-19T01:10:47;4.40;;;4.20;;
27802;SDS011;15182;48.174;11.562;2022-08-19T01:13:24;4.78;;;4.57;;
27802;SDS011;15182;48.174;11.562;2022-08-19T01:16:00;5.03;;;4.63;;
27802;SDS011;15182;48.174;11.562;2022-08-19T01:18:36;3.97;;;3.88;;
27802;SDS011;15182;48.174;11.562;2022-08-19T01:21:12;4.28;;;4.15;;
27802;SDS011;15182;48.174;11.562;2022-08-19T01:23:52;4.80;;;4.50;;
27802;SDS011;15182;48.174;11.562;2022-08-19T01:26:24;5.15;;;4.95;;
27802;SDS011;15182;48.174;11.562;2022-08-19T01:28:58;4.57;;;4.43;;
27802;SDS011;15182;48.174;11.562;2022-08-19T01:31:29;5.13;;;4.93;;
27802;SDS011;15182;48.174;11.562;2022-08-19T01:34:02;5.03;;;4.72;;
27802;SDS011;15182;48.174;11.562;2022-08-19T01:36:36;5.63;;;5.10;;
27802;SDS011;15182;48.174;11.562;2022-08-19T01:39:15;5.38;;;5.07;;
27802;SDS011;15182;48.174;11.562;2022-08-19T01:41:50;4.88;;;4.68;;
27802;SDS011;15182;48.174;11.562;2022-08-19T01:44:21;5.28;;;4.72;;
27802;SDS011;15182;48.174;11.562;2022-08-19T01:46:53;5.53;;;5.32;;
27802;SDS011;15182;48.174;11.562;2022-08-19T01:49:24;5.43;;;5.18;;
27802;SDS011;15182;48.174;11.562;2022-08-19T01:51:56;5.15;;;4.85;;
27802;SDS011;15182;48.174;11.562;2022-08-19T01:54:30;5.30;;;5.10;;
27802;SDS011;15182;48.174;11.562;2022-08-19T01:57:02;5.47;;;5.22;;
27802;SDS011;15182;48.174;11.562;2022-08-19T01:59:37;5.38;;;4.97;;
27802;SDS011;15182;48.174;11.562;2022-08-19T02:02:11;4.93;;;4.72;;
27802;SDS011;15182;48.174;11.562;2022-08-19T02:04:43;4.93;;;4.68;;
27802;SDS011;15182;48.174;11.562;2022-08-19T02:07:14;5.15;;;4.90;;
27802;SDS011;15182;48.174;11.562;2022-08-19T02:09:49;4.93;;;4.72;;
27802;SDS011;15182;48.174;11.562;2022-08-19T02:12:21;5.32;;;4.93;;
27802;SDS011;15182;48.174;11.562;2022-08-19T02:14:52;5.30;;;4.90;;
27802;SDS011;15182;48.174;11.562;2022-08-19T02:17:24;4.75;;;4.45;;
27802;SDS011;15182;48.174;11.562;2022-08-19T02:19:56;4.90;;;4.70;;
27802;SDS011;15182;48.174;11.562;2022-08-19T02:22:27;4.85;;;4.55;;
27802;SDS011;15182;48.174;11.562;2022-08-19T02:25:00;4.88;;;4.57;;
27802;SDS011;15182;48.174;11.562;2022-08-19T02:27:33;4.70;;;4.38;;
27802;SDS011;15182;48.174;11.562;2022-08-19T02:30:06;5.15;;;4.85;;
27802;SDS011;15182;48.174;11.562;2022-08-19T02:32:43;4.18;;;4.07;;
27802;SDS011;15182;48.174;11.562;2022-08-19T02:35:16;4.40;;;4.20;;
27802;SDS011;15182;48.174;11.562;2022-08-19T02:37:49;4.93;;;4.72;;
27802;SDS011;15182;48.174;11.562;2022-08-19T02:40:39;4.05;;;3.85;;
27802;SDS011;15182;48.174;11.562;2022-08-19T02:43:18;4.53;;;4.32;;
27802;SDS011;15182;48.174;11.562;2022-08-19T02:45:51;4.20;;;4.00;;
27802;SDS011;15182;48.174;11.562;2022-08-19T02:48:24;4.30;;;4.10;;
27802;SDS011;15182;48.174;11.562;2022-08-19T02:50:58;3.70;;;3.60;;
27802;SDS011;15182;48.174;11.562;2022-08-19T02:53:31;4.15;;;3.88;;
27802;SDS011;15182;48.174;11.562;2022-08-19T02:56:07;4.35;;;4.25;;
27802;SDS011;15182;48.174;11.562;2022-08-19T02:58:38;4.38;;;4.20;;
27802;SDS011;15182;48.174;11.562;2022-08-19T03:01:10;3.58;;;3.47;;
27802;SDS011;15182;48.174;11.562;2022-08-19T03:03:48;3.85;;;3.67;;
27802;SDS011;15182;48.174;11.562;2022-08-19T03:06:21;4.10;;;3.92;;
27802;SDS011;15182;48.174;11.562;2022-08-19T03:08:55;3.97;;;3.80;;
27802;SDS011;15182;48.174;11.562;2022-08-19T03:11:29;4.22;;;3.92;;
27802;SDS011;15182;48.174;11.562;2022-08-19T03:14:02;3.95;;;3.83;;
27802;SDS011;15182;48.174;11.562;2022-08-19T03:16:40;3.65;;;3.55;;
27802;SDS011;15182;48.174;11.562;2022-08-19T03:19:15;3.95;;;3.85;;
27802;SDS011;15182;48.174;11.562;2022-08-19T03:21:48;4.57;;;4.38;;
27802;SDS011;15182;48.174;11.562;2022-08-19T03:24:19;4.18;;;3.88;;
27802;SDS011;15182;48.174;11.562;2022-08-19T03:26:53;3.90;;;3.80;;
27802;SDS011;15182;48.174;11.562;2022-08-19T03:29:26;4.20;;;4.00;;
27802;SDS011;15182;48.174;11.562;2022-08-19T03:31:58;4.20;;;4.10;;
27802;SDS011;15182;48.174;11.562;2022-08-19T03:34:33;4.05;;;3.88;;
27802;SDS011;15182;48.174;11.562;2022-08-19T03:37:06;3.88;;;3.78;;
27802;SDS011;15182;48.174;11.562;2022-08-19T03:39:40;4.25;;;4.15;;
27802;SDS011;15182;48.174;11.562;2022-08-19T03:42:14;3.92;;;3.72;;
27802;SDS011;15182;48.174;11.562;2022-08-19T03:44:45;4.10;;;4.00;;
27802;SDS011;15182;48.174;11.562;2022-08-19T03:47:16;3.78;;;3.67;;
27802;SDS011;15182;48.174;11.562;2022-08-19T03:49:47;4.03;;;3.92;;
27802;SDS011;15182;48.174;11.562;2022-08-19T03:52:19;3.90;;;3.80;;
27802;SDS011;15182;48.174;11.562;2022-08-19T03:54:50;3.72;;;3.63;;
27802;SDS011;15182;48.174;11.562;2022-08-19T03:57:23;4.43;;;4.25;;
27802;SDS011;15182;48.174;11.562;2022-08-19T03:59:54;4.20;;;4.00;;
27802;SDS011;15182;48.174;11.562;2022-08-19T04:02:26;5.05;;;4.75;;
27802;SDS011;15182;48.174;11.562;2022-08-19T04:04:57;4.38;;;4.18;;
27802;SDS011;15182;48.174;11.562;2022-08-19T04:07:28;4.28;;;4.07;;
27802;SDS011;15182;48.174;11.562;2022-08-19T04:10:00;4.15;;;4.05;;
27802;SDS011;15182;48.174;11.562;2022-08-19T04:12:34;4.78;;;4.47;;
27802;SDS011;15182;48.174;11.562;2022-08-19T04:15:06;4.60;;;4.32;;
27802;SDS011;15182;48.174;11.562;2022-08-19T04:17:39;4.63;;;4.43;;
27802;SDS011;15182;48.174;11.562;2022-08-19T04:20:11;4.95;;;4.70;;
27802;SDS011;15182;48.174;11.562;2022-08-19T04:22:42;5.03;;;4.78;;
27802;SDS011;15182;48.174;11.562;2022-08-19T04:25:14;4.40;;;4.22;;
27802;SDS011;15182;48.174;11.562;2022-08-19T04:27:46;5.45;;;5.15;;
27802;SDS011;15182;48.174;11.562;2022-08-19T04:30:18;5.18;;;4.82;;
27802;SDS011;15182;48.174;11.562;2022-08-19T04:32:49;4.75;;;4.55;;
27802;SDS011;15182;48.174;11.562;2022-08-19T04:35:22;5.03;;;4.72;;
27802;SDS011;15182;48.174;11.562;2022-08-19T04:37:53;4.80;;;4.60;;
27802;SDS011;15182;48.174;11.562;2022-08-19T04:40:25;5.53;;;5.25;;
27802;SDS011;15182;48.174;11.562;2022-08-19T04:43:15;4.63;;;4.32;;
27802;SDS011;15182;48.174;11.562;2022-08-19T04:45:47;5.40;;;4.93;;
27802;SDS011;15182;48.174;11.562;2022-08-19T04:48:18;5.40;;;5.10;;
27802;SDS011;15182;48.174;11.562;2022-08-19T04:50:52;5.70;;;4.90;;
27802;SDS011;15182;48.174;11.562;2022-08-19T04:53:24;4.72;;;4.53;;
27802;SDS011;15182;48.174;11.562;2022-08-19T04:55:57;5.75;;;5.35;;
27802;SDS011;15182;48.174;11.562;2022-08-19T04:58:37;5.32;;;4.95;;
27802;SDS011;15182;48.174;11.562;2022-08-19T05:01:11;5.93;;;5.40;;
27802;SDS011;15182;48.174;11.562;2022-08-19T05:03:44;5.90;;;5.50;;
27802;SDS011;15182;48.174;11.562;2022-08-19T05:06:17;5.45;;;5.07;;
27802;SDS011;15182;48.174;11.562;2022-08-19T05:08:52;5.68;;;5.38;;
27802;SDS011;15182;48.174;11.562;2022-08-19T05:11:24;4.57;;;4.38;;
27802;SDS011;15182;48.174;11.562;2022-08-19T05:14:05;5.47;;;5.05;;
27802;SDS011;15182;48.174;11.562;2022-08-19T05:16:39;6.10;;;5.55;;
27802;SDS011;15182;48.174;11.562;2022-08-19T05:19:10;5.13;;;4.82;;
27802;SDS011;15182;48.174;11.562;2022-08-19T05:22:00;6.05;;;5.47;;
27802;SDS011;15182;48.174;11.562;2022-08-19T05:24:49;5.75;;;5.40;;
27802;SDS011;15182;48.174;11.562;2022-08-19T05:27:21;6.13;;;5.28;;
27802;SDS011;15182;48.174;11.562;2022-08-19T05:29:53;5.50;;;5.03;;
27802;SDS011;15182;48.174;11.562;2022-08-19T05:32:25;5.72;;;5.40;;
27802;SDS011;15182;48.174;11.562;2022-08-19T05:34:57;5.22;;;5.03;;
27802;SDS011;15182;48.174;11.562;2022-08-19T05:37:28;5.68;;;5.30;;
27802;SDS011;15182;48.174;11.562;2022-08-19T05:39:59;5.40;;;5.15;;
27802;SDS011;15182;48.174;11.562;2022-08-19T05:42:32;6.07;;;5.70;;
27802;SDS011;15182;48.174;11.562;2022-08-19T05:45:05;5.00;;;4.80;;
27802;SDS011;15182;48.174;11.562;2022-08-19T05:47:39;5.70;;;5.32;;
27802;SDS011;15182;48.174;11.562;2022-08-19T05:50:10;6.45;;;5.95;;
27802;SDS011;15182;48.174;11.562;2022-08-19T05:52:43;5.95;;;5.53;;
27802;SDS011;15182;48.174;11.562;2022-08-19T05:55:15;5.63;;;5.22;;
27802;SDS011;15182;48.174;11.562;2022-08-19T05:57:47;5.95;;;5.63;;
27802;SDS011;15182;48.174;11.562;2022-08-19T06:00:20;6.30;;;5.85;;
27802;SDS011;15182;48.174;11.562;2022-08-19T06:02:51;6.47;;;5.97;;
27802;SDS011;15182;48.174;11.562;2022-08-19T06:05:28;6.20;;;5.80;;
27802;SDS011;15182;48.174;11.562;2022-08-19T06:08:00;5.45;;;5.05;;
27802;SDS011;15182;48.174;11.562;2022-08-19T06:10:33;5.65;;;5.28;;
27802;SDS011;15182;48.174;11.562;2022-08-19T06:13:04;7.05;;;6.53;;
27802;SDS011;15182;48.174;11.562;2022-08-19T06:15:37;7.60;;;7.00;;
27802;SDS011;15182;48.174;11.562;2022-08-19T06:18:10;6.75;;;6.28;;
27802;SDS011;15182;48.174;11.562;2022-08-19T06:20:42;6.72;;;6.18;;
27802;SDS011;15182;48.174;11.562;2022-08-19T06:23:14;7.20;;;6.60;;
27802;SDS011;15182;48.174;11.562;2022-08-19T06:25:46;7.80;;;7.07;;
27802;SDS011;15182;48.174;11.562;2022-08-19T06:28:17;6.70;;;6.20;;
27802;SDS011;15182;48.174;11.562;2022-08-19T06:30:50;13.15;;;6.68;;
27802;SDS011;15182;48.174;11.562;2022-08-19T06:33:21;6.50;;;6.10;;
27802;SDS011;15182;48.174;11.562;2022-08-19T06:35:55;7.28;;;6.68;;
27802;SDS011;15182;48.174;11.562;2022-08-19T06:38:26;7.78;;;7.07;;
27802;SDS011;15182;48.174;11.562;2022-08-19T06:41:02;7.25;;;6.75;;
27802;SDS011;15182;48.174;11.562;2022-08-19T06:43:35;7.03;;;6.47;;
27802;SDS011;15182;48.174;11.562;2022-08-19T06:46:10;7.38;;;6.80;;
27802;SDS011;15182;48.174;11.562;2022-08-19T06:48:42;7.25;;;6.68;;
27802;SDS011;15182;48.174;11.562;2022-08-19T06:51:14;7.95;;;7.25;;
27802;SDS011;15182;48.174;11.562;2022-08-19T06:53:47;7.90;;;7.25;;
27802;SDS011;15182;48.174;11.562;2022-08-19T06:56:21;7.60;;;7.00;;
27802;SDS011;15182;48.174;11.562;2022-08-19T06:58:59;7.78;;;7.07;;
27802;SDS011;15182;48.174;11.562;2022-08-19T07:01:35;8.05;;;7.32;;
27802;SDS011;15182;48.174;11.562;2022-08-19T07:04:11;7.82;;;7.13;;
27802;SDS011;15182;48.174;11.562;2022-08-19T07:06:46;7.90;;;7.10;;
27802;SDS011;15182;48.174;11.562;2022-08-19T07:09:23;8.52;;;7.85;;
27802;SDS011;15182;48.174;11.562;2022-08-19T07:11:56;8.98;;;8.07;;
27802;SDS011;15182;48.174;11.562;2022-08-19T07:14:27;8.77;;;7.97;;
27802;SDS011;15182;48.174;11.562;2022-08-19T07:17:04;9.63;;;8.60;;
27802;SDS011;15182;48.174;11.562;2022-08-19T07:19:38;12.05;;;8.48;;
27802;SDS011;15182;48.174;11.562;2022-08-19T07:22:10;9.52;;;8.73;;
27802;SDS011;15182;48.174;11.562;2022-08-19T07:24:43;9.63;;;8.73;;
27802;SDS011;15182;48.174;11.562;2022-08-19T07:27:15;9.07;;;8.30;;
27802;SDS011;15182;48.174;11.562;2022-08-19T07:29:47;11.38;;;9.45;;
27802;SDS011;15182;48.174;11.562;2022-08-19T07:32:20;10.43;;;9.43;;
27802;SDS011;15182;48.174;11.562;2022-08-19T07:34:52;12.80;;;9.60;;
27802;SDS011;15182;48.174;11.562;2022-08-19T07:37:26;10.85;;;9.52;;
27802;SDS011;15182;48.174;11.562;2022-08-19T07:39:57;10.75;;;9.13;;
27802;SDS011;15182;48.174;11.562;2022-08-19T07:42:28;12.93;;;11.52;;
27802;SDS011;15182;48.174;11.562;2022-08-19T07:44:59;15.88;;;11.60;;
27802;SDS011;15182;48.174;11.562;2022-08-19T07:47:33;13.95;;;11.27;;
27802;SDS011;15182;48.174;11.562;2022-08-19T07:50:06;15.65;;;12.10;;
27802;SDS011;15182;48.174;11.562;2022-08-19T07:52:40;15.82;;;11.95;;
27802;SDS011;15182;48.174;11.562;2022-08-19T07:55:12;18.80;;;12.98;;
27802;SDS011;15182;48.174;11.562;2022-08-19T07:57:46;15.35;;;12.05;;
27802;SDS011;15182;48.174;11.562;2022-08-19T08:00:19;39.85;;;27.23;;
27802;SDS011;15182;48.174;11.562;2022-08-19T08:02:52;25.52;;;18.92;;
27802;SDS011;15182;48.174;11.562;2022-08-19T08:05:23;17.73;;;13.90;;
27802;SDS011;15182;48.174;11.562;2022-08-19T08:08:13;17.38;;;12.95;;
27802;SDS011;15182;48.174;11.562;2022-08-19T08:11:14;12.85;;;11.05;;
27802;SDS011;15182;48.174;11.562;2022-08-19T08:13:48;20.65;;;12.93;;
27802;SDS011;15182;48.174;11.562;2022-08-19T08:16:19;17.92;;;12.95;;
27802;SDS011;15182;48.174;11.562;2022-08-19T08:18:57;17.05;;;13.27;;
27802;SDS011;15182;48.174;11.562;2022-08-19T08:21:29;17.02;;;12.48;;
27802;SDS011;15182;48.174;11.562;2022-08-19T08:24:02;14.15;;;12.65;;
27802;SDS011;15182;48.174;11.562;2022-08-19T08:26:34;16.60;;;12.77;;
27802;SDS011;15182;48.174;11.562;2022-08-19T08:29:06;17.90;;;13.55;;
27802;SDS011;15182;48.174;11.562;2022-08-19T08:31:38;16.65;;;12.43;;
27802;SDS011;15182;48.174;11.562;2022-08-19T08:34:12;15.57;;;12.32;;
27802;SDS011;15182;48.174;11.562;2022-08-19T08:36:45;16.75;;;13.18;;
27802;SDS011;15182;48.174;11.562;2022-08-19T08:39:18;15.70;;;12.68;;
27802;SDS011;15182;48.174;11.562;2022-08-19T08:41:52;19.30;;;12.35;;
27802;SDS011;15182;48.174;11.562;2022-08-19T08:44:37;15.18;;;12.32;;
27802;SDS011;15182;48.174;11.562;2022-08-19T08:47:15;15.95;;;12.40;;
27802;SDS011;15182;48.174;11.562;2022-08-19T08:49:53;16.02;;;13.15;;
27802;SDS011;15182;48.174;11.562;2022-08-19T08:52:30;16.92;;;12.18;;
27802;SDS011;15182;48.174;11.562;2022-08-19T08:55:08;13.15;;;11.68;;
27802;SDS011;15182;48.174;11.562;2022-08-19T08:57:49;15.68;;;13.07;;
27802;SDS011;15182;48.174;11.562;2022-08-19T09:00:24;14.43;;;12.38;;
27802;SDS011;15182;48.174;11.562;2022-08-19T09:03:03;16.38;;;13.13;;
27802;SDS011;15182;48.174;11.562;2022-08-19T09:05:47;18.10;;;13.25;;
27802;SDS011;15182;48.174;11.562;2022-08-19T09:08:28;18.10;;;13.38;;
27802;SDS011;15182;48.174;11.562;2022-08-19T09:11:06;18.23;;;14.15;;
27802;SDS011;15182;48.174;11.562;2022-08-19T09:13:42;20.83;;;14.40;;
27802;SDS011;15182;48.174;11.562;2022-08-19T09:16:22;19.23;;;14.25;;
27802;SDS011;15182;48.174;11.562;2022-08-19T09:18:54;17.17;;;14.07;;
27802;SDS011;15182;48.174;11.562;2022-08-19T09:21:31;20.77;;;14.13;;
27802;SDS011;15182;48.174;11.562;2022-08-19T09:24:04;21.33;;;15.35;;
27802;SDS011;15182;48.174;11.562;2022-08-19T09:26:36;19.95;;;14.23;;
27802;SDS011;15182;48.174;11.562;2022-08-19T09:29:09;18.75;;;14.43;;
27802;SDS011;15182;48.174;11.562;2022-08-19T09:31:41;18.50;;;13.65;;
27802;SDS011;15182;48.174;11.562;2022-08-19T09:34:12;21.63;;;13.10;;
27802;SDS011;15182;48.174;11.562;2022-08-19T09:36:47;17.38;;;13.75;;
27802;SDS011;15182;48.174;11.562;2022-08-19T09:39:20;20.27;;;13.95;;
27802;SDS011;15182;48.174;11.562;2022-08-19T09:41:52;19.63;;;14.45;;
27802;SDS011;15182;48.174;11.562;2022-08-19T09:44:23;19.38;;;14.38;;
27802;SDS011;15182;48.174;11.562;2022-08-19T09:46:54;19.00;;;13.48;;
27802;SDS011;15182;48.174;11.562;2022-08-19T09:49:27;18.02;;;13.68;;
27802;SDS011;15182;48.174;11.562;2022-08-19T09:52:00;14.50;;;11.85;;
27802;SDS011;15182;48.174;11.562;2022-08-19T09:54:33;16.15;;;12.13;;
27802;SDS011;15182;48.174;11.562;2022-08-19T09:57:05;16.50;;;12.88;;
27802;SDS011;15182;48.174;11.562;2022-08-19T09:59:37;14.85;;;12.38;;
27802;SDS011;15182;48.174;11.562;2022-08-19T10:02:10;15.00;;;11.95;;
27802;SDS011;15182;48.174;11.562;2022-08-19T10:04:41;16.08;;;12.23;;
27802;SDS011;15182;48.174;11.562;2022-08-19T10:07:32;17.08;;;11.70;;
27802;SDS011;15182;48.174;11.562;2022-08-19T10:10:04;18.55;;;12.27;;
27802;SDS011;15182;48.174;11.562;2022-08-19T10:12:37;16.45;;;12.45;;
27802;SDS011;15182;48.174;11.562;2022-08-19T10:15:13;14.68;;;12.10;;
27802;SDS011;15182;48.174;11.562;2022-08-19T10:17:46;16.13;;;11.68;;
27802;SDS011;15182;48.174;11.562;2022-08-19T10:20:17;13.05;;;11.38;;
27802;SDS011;15182;48.174;11.562;2022-08-19T10:22:50;12.68;;;10.40;;
27802;SDS011;15182;48.174;11.562;2022-08-19T10:25:23;13.32;;;10.70;;
27802;SDS011;15182;48.174;11.562;2022-08-19T10:27:55;11.43;;;10.00;;
27802;SDS011;15182;48.174;11.562;2022-08-19T10:30:26;10.50;;;9.40;;
27802;SDS011;15182;48.174;11.562;2022-08-19T10:32:57;11.32;;;10.13;;
27802;SDS011;15182;48.174;11.562;2022-08-19T10:35:32;11.10;;;9.90;;
27802;SDS011;15182;48.174;11.562;2022-08-19T10:38:05;14.45;;;11.38;;
27802;SDS011;15182;48.174;11.562;2022-08-19T10:40:36;11.27;;;10.13;;
27802;SDS011;15182;48.174;11.562;2022-08-19T10:43:08;12.55;;;10.32;;
27802;SDS011;15182;48.174;11.562;2022-08-19T10:45:48;10.80;;;9.70;;
27802;SDS011;15182;48.174;11.562;2022-08-19T10:48:25;13.85;;;11.10;;
27802;SDS011;15182;48.174;11.562;2022-08-19T10:50:56;13.93;;;10.02;;
27802;SDS011;15182;48.174;11.562;2022-08-19T10:53:47;10.00;;;8.95;;
27802;SDS011;15182;48.174;11.562;2022-08-19T10:56:19;9.45;;;8.65;;
27802;SDS011;15182;48.174;11.562;2022-08-19T10:59:08;10.05;;;9.05;;
27802;SDS011;15182;48.174;11.562;2022-08-19T11:01:42;9.63;;;8.77;;
27802;SDS011;15182;48.174;11.562;2022-08-19T11:04:16;9.32;;;8.43;;
27802;SDS011;15182;48.174;11.562;2022-08-19T11:06:48;10.25;;;9.15;;
27802;SDS011;15182;48.174;11.562;2022-08-19T11:09:22;10.57;;;9.57;;
27802;SDS011;15182;48.174;11.562;2022-08-19T11:11:55;10.98;;;9.40;;
27802;SDS011;15182;48.174;11.562;2022-08-19T11:14:26;10.18;;;9.20;;
27802;SDS011;15182;48.174;11.562;2022-08-19T11:16:58;9.63;;;8.80;;
27802;SDS011;15182;48.174;11.562;2022-08-19T11:19:31;9.68;;;8.18;;
27802;SDS011;15182;48.174;11.562;2022-08-19T11:22:03;8.07;;;7.40;;
27802;SDS011;15182;48.174;11.562;2022-08-19T11:24:37;7.90;;;7.10;;
27802;SDS011;15182;48.174;11.562;2022-08-19T11:27:09;6.57;;;6.18;;
27802;SDS011;15182;48.174;11.562;2022-08-19T11:29:40;6.22;;;5.82;;
27802;SDS011;15182;48.174;11.562;2022-08-19T11:32:12;5.90;;;5.50;;
27802;SDS011;15182;48.174;11.562;2022-08-19T11:34:43;4.50;;;4.30;;
27802;SDS011;15182;48.174;11.562;2022-08-19T11:37:15;3.80;;;3.70;;
27802;SDS011;15182;48.174;11.562;2022-08-19T11:39:47;3.47;;;3.38;;
27802;SDS011;15182;48.174;11.562;2022-08-19T11:42:19;3.53;;;3.40;;
27802;SDS011;15182;48.174;11.562;2022-08-19T11:45:08;3.28;;;3.08;;
27802;SDS011;15182;48.174;11.562;2022-08-19T11:47:40;2.55;;;2.55;;
27802;SDS011;15182;48.174;11.562;2022-08-19T11:50:12;2.42;;;2.42;;
27802;SDS011;15182;48.174;11.562;2022-08-19T11:52:44;2.67;;;2.58;;
27802;SDS011;15182;48.174;11.562;2022-08-19T11:55:18;2.15;;;2.15;;
27802;SDS011;15182;48.174;11.562;2022-08-19T11:57:50;2.38;;;2.35;;
27802;SDS011;15182;48.174;11.562;2022-08-19T12:00:21;2.15;;;2.05;;
27802;SDS011;15182;48.174;11.562;2022-08-19T12:02:52;2.10;;;2.10;;
27802;SDS011;15182;48.174;11.562;2022-08-19T12:05:23;1.83;;;1.83;;
27802;SDS011;15182;48.174;11.562;2022-08-19T12:07:55;1.80;;;1.80;;
27802;SDS011;15182;48.174;11.562;2022-08-19T12:10:28;1.80;;;1.80;;
27802;SDS011;15182;48.174;11.562;2022-08-19T12:13:00;2.20;;;2.00;;
27802;SDS011;15182;48.174;11.562;2022-08-19T12:15:34;1.60;;;1.60;;
27802;SDS011;15182;48.174;11.562;2022-08-19T12:18:07;1.58;;;1.58;;
27802;SDS011;15182;48.174;11.562;2022-08-19T12:20:41;3.70;;;1.75;;
27802;SDS011;15182;48.174;11.562;2022-08-19T12:23:13;1.40;;;1.40;;
27802;SDS011;15182;48.174;11.562;2022-08-19T12:25:47;1.65;;;1.58;;
27802;SDS011;15182;48.174;11.562;2022-08-19T12:28:20;1.50;;;1.50;;
27802;SDS011;15182;48.174;11.562;2022-08-19T12:30:55;1.40;;;1.40;;
27802;SDS011;15182;48.174;11.562;2022-08-19T12:33:27;1.70;;;1.70;;
27802;SDS011;15182;48.174;11.562;2022-08-19T12:35:59;1.50;;;1.50;;
27802;SDS011;15182;48.174;11.562;2022-08-19T12:38:35;1.60;;;1.60;;
27802;SDS011;15182;48.174;11.562;2022-08-19T12:41:10;1.60;;;1.60;;
27802;SDS011;15182;48.174;11.562;2022-08-19T12:43:44;1.60;;;1.60;;
27802;SDS011;15182;48.174;11.562;2022-08-19T12:46:16;1.40;;;1.40;;
27802;SDS011;15182;48.174;11.562;2022-08-19T12:48:49;1.48;;;1.40;;
27802;SDS011;15182;48.174;11.562;2022-08-19T12:51:21;1.60;;;1.50;;
27802;SDS011;15182;48.174;11.562;2022-08-19T12:53:52;1.30;;;1.30;;
27802;SDS011;15182;48.174;11.562;2022-08-19T12:56:25;1.30;;;1.30;;
27802;SDS011;15182;48.174;11.562;2022-08-19T12:58:56;1.60;;;1.60;;
27802;SDS011;15182;48.174;11.562;2022-08-19T13:01:30;1.25;;;1.25;;
27802;SDS011;15182;48.174;11.562;2022-08-19T13:04:01;1.35;;;1.35;;
27802;SDS011;15182;48.174;11.562;2022-08-19T13:06:32;1.60;;;1.58;;
27802;SDS011;15182;48.174;11.562;2022-08-19T13:09:04;1.35;;;1.35;;
27802;SDS011;15182;48.174;11.562;2022-08-19T13:11:37;1.50;;;1.50;;
27802;SDS011;15182;48.174;11.562;2022-08-19T13:14:10;1.42;;;1.42;;
27802;SDS011;15182;48.174;11.562;2022-08-19T13:16:41;1.70;;;1.60;;
27802;SDS011;15182;48.174;11.562;2022-08-19T13:19:13;1.55;;;1.55;;
27802;SDS011;15182;48.174;11.562;2022-08-19T13:21:48;1.40;;;1.40;;
27802;SDS011;15182;48.174;11.562;2022-08-19T13:24:22;1.60;;;1.60;;
27802;SDS011;15182;48.174;11.562;2022-08-19T13:26:54;1.50;;;1.40;;
27802;SDS011;15182;48.174;11.562;2022-08-19T13:29:25;1.30;;;1.30;;
27802;SDS011;15182;48.174;11.562;2022-08-19T13:32:15;1.20;;;1.20;;
27802;SDS011;15182;48.174;11.562;2022-08-19T13:35:04;1.35;;;1.35;;
27802;SDS011;15182;48.174;11.562;2022-08-19T13:37:37;1.40;;;1.40;;
27802;SDS011;15182;48.174;11.562;2022-08-19T13:40:09;1.30;;;1.30;;
27802;SDS011;15182;48.174;11.562;2022-08-19T13:42:47;1.30;;;1.30;;
27802;SDS011;15182;48.174;11.562;2022-08-19T13:45:22;1.60;;;1.60;;
27802;SDS011;15182;48.174;11.562;2022-08-19T13:47:58;1.55;;;1.55;;
27802;SDS011;15182;48.174;11.562;2022-08-19T13:50:35;1.83;;;1.83;;
27802;SDS011;15182;48.174;11.562;2022-08-19T13:53:10;2.00;;;2.00;;
27802;SDS011;15182;48.174;11.562;2022-08-19T13:55:43;1.98;;;1.98;;
27802;SDS011;15182;48.174;11.562;2022-08-19T13:58:17;2.20;;;2.20;;
27802;SDS011;15182;48.174;11.562;2022-08-19T14:00:49;1.98;;;1.88;;
27802;SDS011;15182;48.174;11.562;2022-08-19T14:03:20;2.40;;;2.40;;
27802;SDS011;15182;48.174;11.562;2022-08-19T14:05:52;2.10;;;2.10;;
27802;SDS011;15182;48.174;11.562;2022-08-19T14:08:23;2.13;;;2.13;;
27802;SDS011;15182;48.174;11.562;2022-08-19T14:10:57;2.33;;;2.33;;
27802;SDS011;15182;48.174;11.562;2022-08-19T14:13:30;2.25;;;2.20;;
27802;SDS011;15182;48.174;11.562;2022-08-19T14:16:06;2.35;;;2.35;;
27802;SDS011;15182;48.174;11.562;2022-08-19T14:18:39;2.20;;;2.20;;
27802;SDS011;15182;48.174;11.562;2022-08-19T14:21:14;2.22;;;2.22;;
27802;SDS011;15182;48.174;11.562;2022-08-19T14:23:49;2.15;;;2.15;;
27802;SDS011;15182;48.174;11.562;2022-08-19T14:26:22;2.75;;;2.65;;
27802;SDS011;15182;48.174;11.562;2022-08-19T14:28:54;2.58;;;2.58;;
27802;SDS011;15182;48.174;11.562;2022-08-19T14:31:27;2.70;;;2.60;;
27802;SDS011;15182;48.174;11.562;2022-08-19T14:33:58;2.97;;;2.88;;
27802;SDS011;15182;48.174;11.562;2022-08-19T14:36:30;3.03;;;2.93;;
27802;SDS011;15182;48.174;11.562;2022-08-19T14:39:03;3.20;;;3.10;;
27802;SDS011;15182;48.174;11.562;2022-08-19T14:41:35;2.78;;;2.78;;
27802;SDS011;15182;48.174;11.562;2022-08-19T14:44:09;2.80;;;2.80;;
27802;SDS011;15182;48.174;11.562;2022-08-19T14:46:41;2.70;;;2.70;;
27802;SDS011;15182;48.174;11.562;2022-08-19T14:49:13;2.80;;;2.80;;
27802;SDS011;15182;48.174;11.562;2022-08-19T14:51:44;2.58;;;2.58;;
27802;SDS011;15182;48.174;11.562;2022-08-19T14:54:16;2.85;;;2.75;;
27802;SDS011;15182;48.174;11.562;2022-08-19T14:56:47;2.78;;;2.78;;
27802;SDS011;15182;48.174;11.562;2022-08-19T14:59:20;2.53;;;2.53;;
27802;SDS011;15182;48.174;11.562;2022-08-19T15:01:51;2.97;;;2.97;;
27802;SDS011;15182;48.174;11.562;2022-08-19T15:04:23;3.13;;;3.03;;
27802;SDS011;15182;48.174;11.562;2022-08-19T15:06:54;2.97;;;2.88;;